Time;durP1;ratioP1;P1;durP2;ratioP2;P2;SDS_P1;SDS_P2;PMS_P1;PMS_P2;Temp;Humidity;BMP_temperature;BMP_pressure;BME280_temperature;BME280_humidity;BME280_pressure;Samples;Min_cycle;Max_cycle;Signal;HPM_P1;HPM_P2
2022/08/01 00:03:12;;;;;;;;;;;;;;;17.49;100.00;100150.13;10671552;27;19923;-69
2022/08/01 00:08:15;;;;;;;8.25;2.70;;;;;;;17.44;100.00;100152.91;10671384;27;19923;-67
2022/08/01 00:13:18;;;;;;;7.60;2.70;;;;;;;17.41;100.00;100152.19;10670935;27;20236;-69
2022/08/01 00:18:23;;;;;;;8.33;2.60;;;;;;;17.33;100.00;100140.25;10670867;27;20561;-70
2022/08/01 00:23:26;;;;;;;4.50;2.23;;;;;;;17.35;100.00;100134.91;10670522;27;20681;-69
2022/08/01 00:28:29;;;;;;;5.80;2.07;;;;;;;17.34;100.00;100133.22;10670415;27;20547;-69
2022/08/01 00:33:34;;;;;;;5.80;1.80;;;;;;;17.30;100.00;100123.78;10669880;27;20239;-70
2022/08/01 00:38:37;;;;;;;3.77;1.93;;;;;;;17.31;100.00;100120.22;10670319;27;20224;-70
2022/08/01 00:43:40;;;;;;;4.30;1.80;;;;;;;17.26;100.00;100117.78;10669878;27;20677;-68
2022/08/01 00:48:44;;;;;;;3.87;1.80;;;;;;;17.22;100.00;100113.56;10669702;27;20259;-68
2022/08/01 00:53:48;;;;;;;4.50;1.73;;;;;;;17.28;100.00;100122.97;10669975;27;20239;-69
2022/08/01 00:58:55;;;;;;;3.80;1.93;;;;;;;17.24;100.00;100132.72;10669789;27;20213;-70
2022/08/01 01:03:59;;;;;;;6.10;2.13;;;;;;;17.31;100.00;100131.56;10669748;27;20299;-71
2022/08/01 01:09:16;;;;;;;5.23;1.60;;;;;;;17.34;100.00;100120.94;10669650;27;20217;-68
2022/08/01 01:14:28;;;;;;;5.07;2.10;;;;;;;17.34;100.00;100128.81;10669454;27;20231;-68
2022/08/01 01:19:38;;;;;;;5.30;2.00;;;;;;;17.34;100.00;100125.34;10669338;27;20224;-68
2022/08/01 01:24:58;;;;;;;6.10;2.07;;;;;;;17.31;100.00;100122.84;10669348;27;20213;-74
2022/08/01 01:30:04;;;;;;;8.63;2.20;;;;;;;17.27;100.00;100131.78;10669014;27;20209;-71
2022/08/01 01:35:11;;;;;;;5.27;2.20;;;;;;;17.20;100.00;100117.19;10668843;27;20233;-70
2022/08/01 01:40:16;;;;;;;11.27;5.43;;;;;;;17.17;100.00;100123.41;10668954;27;20297;-66
2022/08/01 01:45:22;;;;;;;7.43;2.60;;;;;;;17.14;100.00;100126.16;10668894;27;20217;-66
2022/08/01 01:50:26;;;;;;;6.80;2.00;;;;;;;17.16;100.00;100126.97;10669039;27;20231;-70
2022/08/01 01:55:30;;;;;;;7.00;3.47;;;;;;;17.12;100.00;100125.38;10668547;27;20304;-71
2022/08/01 02:00:36;;;;;;;4.60;1.73;;;;;;;17.02;100.00;100124.03;10674087;27;20209;-66
2022/08/01 02:05:41;;;;;;;7.17;1.97;;;;;;;16.92;100.00;100127.94;10676186;27;20641;-69
2022/08/01 02:11:17;;;;;;;9.10;2.10;;;;;;;16.93;100.00;100120.91;10675889;27;20210;-66
2022/08/01 02:16:12;;;;;;;14.27;6.33;;;;;;;17.07;100.00;100119.44;10675317;27;20221;-67
2022/08/01 02:21:19;;;;;;;12.70;3.00;;;;;;;17.10;100.00;100113.25;10675526;27;20646;-67
2022/08/01 02:26:25;;;;;;;4.43;1.73;;;;;;;16.98;100.00;100116.38;10675184;27;20227;-66
2022/08/01 02:31:34;;;;;;;9.60;4.43;;;;;;;16.88;100.00;100123.72;10675151;27;20217;-70
2022/08/01 02:36:38;;;;;;;7.20;2.63;;;;;;;16.96;100.00;100128.69;10674816;27;20255;-68
2022/08/01 02:41:44;;;;;;;10.63;4.87;;;;;;;16.98;100.00;100130.31;10674468;27;20217;-68
2022/08/01 02:46:51;;;;;;;;;;;;;;;16.95;100.00;100129.56;10673649;27;20217;-67
2022/08/01 02:51:55;;;;;;;;;;;;;;;16.85;100.00;100130.84;10668869;27;20334;-69
2022/08/01 02:56:58;;;;;;;;;;;;;;;16.82;100.00;100123.13;10668307;27;19926;-69
2022/08/01 03:02:04;;;;;;;;;;;;;;;16.80;100.00;100124.94;10667865;27;20289;-67
2022/08/01 03:07:11;;;;;;;;;;;;;;;16.82;100.00;100130.97;10668860;27;19919;-68
2022/08/01 03:12:16;;;;;;;;;;;;;;;16.74;100.00;100136.50;10667988;27;19918;-69
2022/08/01 03:17:22;;;;;;;;;;;;;;;16.64;100.00;100137.78;10668287;27;19922;-70
2022/08/01 03:22:26;;;;;;;;;;;;;;;16.66;100.00;100132.47;10668065;27;19946;-69
2022/08/01 03:27:30;;;;;;;16.50;4.13;;;;;;;16.56;100.00;100132.00;10667137;27;20036;-68
2022/08/01 03:32:35;;;;;;;;;;;;;;;16.52;100.00;100129.53;10706941;27;20272;-67
2022/08/01 03:37:41;;;;;;;;;;;;;;;16.59;100.00;100138.88;10709583;27;19923;-69
2022/08/01 03:43:08;;;;;;;14.60;3.27;;;;;;;16.51;100.00;100149.66;10709842;27;19929;-67
2022/08/01 03:48:14;;;;;;;;;;;;;;;16.50;100.00;100147.09;10709398;27;20212;-67
2022/08/01 03:53:21;;;;;;;;;;;;;;;16.57;100.00;100152.03;10708790;27;20022;-67
2022/08/01 03:58:25;;;;;;;;;;;;;;;16.58;100.00;100155.50;10710449;27;19937;-69
2022/08/01 04:03:30;;;;;;;;;;;;;;;16.65;100.00;100157.00;10332279;27;10000378;-71
2022/08/01 04:08:36;;;;;;;;;;;;;;;16.68;100.00;100162.09;10668522;27;19919;-71
2022/08/01 04:13:39;;;;;;;;;;;;;;;16.61;100.00;100173.72;10668143;27;19996;-67
2022/08/01 04:18:47;;;;;;;;;;;;;;;16.68;100.00;100169.97;10667915;27;19919;-67
2022/08/01 04:23:52;;;;;;;;;;;;;;;16.68;100.00;100176.06;10667532;27;20271;-68
2022/08/01 04:28:55;;;;;;;;;;;;;;;16.77;100.00;100174.88;10667580;27;20363;-66
2022/08/01 04:34:01;;;;;;;;;;;;;;;16.81;100.00;100177.31;10694928;27;19960;-67
2022/08/01 04:39:05;;;;;;;;;;;;;;;16.82;100.00;100186.91;10710764;27;19999;-68
2022/08/01 04:44:08;;;;;;;;;;;;;;;16.90;100.00;100190.06;10709724;27;19930;-69
2022/08/01 04:49:16;;;;;;;;;;;;;;;16.84;100.00;100179.78;10710396;27;19918;-68
2022/08/01 04:54:21;;;;;;;;;;;;;;;16.96;100.00;100179.31;10709682;27;19969;-69
2022/08/01 04:59:40;;;;;;;;;;;;;;;17.04;100.00;100192.16;10709963;27;19918;-66
2022/08/01 05:04:45;;;;;;;;;;;;;;;16.96;100.00;100194.22;10679450;27;20434;-70
2022/08/01 05:09:48;;;;;;;;;;;;;;;16.95;100.00;100193.34;10666571;27;19925;-70
2022/08/01 05:14:51;;;;;;;;;;;;;;;16.93;100.00;100189.94;10666505;27;19957;-69
2022/08/01 05:19:56;;;;;;;;;;;;;;;16.85;100.00;100199.00;10665993;27;19919;-65
2022/08/01 05:24:59;;;;;;;;;;;;;;;16.84;100.00;100208.63;10696366;27;19922;-66
2022/08/01 05:30:02;;;;;;;;;;;;;;;16.89;100.00;100211.97;10709613;27;19946;-68
2022/08/01 05:35:08;;;;;;;;;;;;;;;16.89;100.00;100211.97;10713421;27;20010;-67
2022/08/01 05:40:11;;;;;;;;;;;;;;;16.88;100.00;100212.00;10717441;27;19953;-67
2022/08/01 05:45:14;;;;;;;;;;;;;;;16.86;100.00;100224.34;10716916;27;19925;-69
2022/08/01 05:50:19;;;;;;;;;;;;;;;16.87;100.00;100226.03;10716942;27;19956;-66
2022/08/01 05:55:22;;;;;;;;;;;;;;;16.98;100.00;100224.69;10716249;27;19919;-67
2022/08/01 06:00:25;;;;;;;;;;;;;;;16.98;100.00;100231.75;10716748;27;19923;-67
2022/08/01 06:05:29;;;;;;;;;;;;;;;16.99;100.00;100228.19;10661559;27;19919;-67
2022/08/01 06:10:32;;;;;;;;;;;;;;;17.04;100.00;100231.47;10673149;27;20063;-70
2022/08/01 06:15:35;;;;;;;;;;;;;;;17.12;100.00;100217.16;10672972;27;19919;-68
2022/08/01 06:20:40;;;;;;;;;;;;;;;17.15;100.00;100218.81;10672518;27;19925;-69
2022/08/01 06:25:43;;;;;;;;;;;;;;;17.18;100.00;100221.31;10675335;27;20278;-70
2022/08/01 06:30:46;;;;;;;;;;;;;;;17.23;100.00;100224.63;10675558;27;19919;-68
2022/08/01 06:35:50;;;;;;;;;;;;;;;17.21;100.00;100224.69;10675009;27;19929;-68
2022/08/01 06:40:53;;;;;;;;;;;;;;;17.35;100.00;100229.38;10675599;27;19919;-67
2022/08/01 06:45:56;;;;;;;;;;;;;;;17.45;100.00;100227.25;10674533;27;19919;-66
2022/08/01 06:51:09;;;;;;;;;;;;;;;17.50;100.00;100233.19;10674884;27;19919;-67
2022/08/01 06:56:12;;;;;;;;;;;;;;;17.48;100.00;100228.00;10674416;27;19936;-69
2022/08/01 07:01:15;;;;;;;;;;;;;;;17.54;100.00;100237.41;10671631;27;19919;-70
2022/08/01 07:06:19;;;;;;;;;;;;;;;17.65;100.00;100222.94;10698684;27;20362;-68
2022/08/01 07:11:23;;;;;;;;;;;;;;;17.72;100.00;100223.53;10714342;27;19962;-69
2022/08/01 07:16:26;;;;;;;;;;;;;;;17.83;100.00;100226.53;10686191;27;19923;-67
2022/08/01 07:21:30;;;;;;;;;;;;;;;17.90;100.00;100225.38;10670300;27;19919;-69
2022/08/01 07:26:43;;;;;;;;;;;;;;;17.95;100.00;100226.91;10670042;27;20344;-67
2022/08/01 07:31:57;;;;;;;;;;;;;;;18.01;100.00;100212.66;10669740;27;19962;-65
2022/08/01 07:37:01;;;;;;;;;;;;;;;18.09;100.00;100214.03;10669618;27;19950;-69
2022/08/01 07:42:04;;;;;;;;;;;;;;;18.18;100.00;100212.78;10669222;27;19919;-67
2022/08/01 07:47:10;;;;;;;;;;;;;;;18.22;100.00;100209.13;10669564;27;20422;-67
2022/08/01 07:52:14;;;;;;;;;;;;;;;18.32;100.00;100211.28;10668987;27;19923;-67
2022/08/01 07:57:17;;;;;;;;;;;;;;;18.39;100.00;100210.09;10668358;27;19919;-67
2022/08/01 08:02:20;;;;;;;;;;;;;;;18.45;100.00;100206.34;10668676;27;20005;-69
2022/08/01 08:07:25;;;;;;;;;;;;;;;18.52;100.00;100206.94;10668680;27;19918;-66
2022/08/01 08:12:28;;;;;;;;;;;;;;;18.60;100.00;100208.31;10668116;27;19918;-67
2022/08/01 08:17:32;;;;;;;;;;;;;;;18.65;100.00;100214.22;10668077;27;20391;-69
2022/08/01 08:22:39;;;;;;;;;;;;;;;18.75;100.00;100222.50;10668234;27;19919;-68
2022/08/01 08:27:42;;;;;;;;;;;;;;;18.85;100.00;100219.41;10667895;27;19930;-67
2022/08/01 08:32:45;;;;;;;;;;;;;;;18.93;100.00;100219.06;10667387;27;19919;-69
2022/08/01 08:37:49;;;;;;;;;;;;;;;19.01;98.76;100224.81;10667458;27;19919;-70
2022/08/01 08:42:58;;;;;;;;;;;;;;;19.07;96.93;100235.06;10667557;27;19926;-65
2022/08/01 08:48:02;;;;;;;;;;;;;;;19.11;97.19;100233.97;10667305;27;20304;-67
2022/08/01 08:53:06;;;;;;;;;;;;;;;19.21;96.85;100228.22;10667369;27;20255;-67
2022/08/01 08:58:10;;;;;;;;;;;;;;;19.27;97.09;100230.56;10667250;27;19919;-67
2022/08/01 09:03:13;;;;;;;;;;;;;;;19.37;94.30;100241.53;10666722;27;20356;-69
2022/08/01 09:08:18;;;;;;;;;;;;;;;19.46;94.40;100241.09;10670817;27;19929;-67
2022/08/01 09:13:21;;;;;;;;;;;;;;;19.55;93.18;100243.28;10675353;27;19918;-67
2022/08/01 09:18:28;;;;;;;;;;;;;;;19.67;92.23;100250.59;10675503;27;20022;-69
2022/08/01 09:23:34;;;;;;;;;;;;;;;19.83;91.45;100242.78;10675460;27;19975;-65
2022/08/01 09:28:37;;;;;;;;;;;;;;;19.96;88.63;100257.91;10674987;27;19929;-68
2022/08/01 09:33:48;;;;;;;;;;;;;;;20.06;88.55;100245.09;10674774;27;20587;-69
2022/08/01 09:38:55;;;;;;;;;;;;;;;20.26;88.15;100256.38;10674461;27;20246;-69
2022/08/01 09:43:59;;;;;;;;;;;;;;;20.41;87.61;100250.31;10674259;27;19925;-68
2022/08/01 09:49:03;;;;;;;;;;;;;;;20.62;87.02;100238.63;10674361;27;20407;-69
2022/08/01 09:54:28;;;;;;;;;;;;;;;20.84;87.52;100240.13;10674229;27;19927;-65
2022/08/01 09:59:35;;;;;;;;;;;;;;;21.21;83.58;100243.34;10673607;27;19922;-67
2022/08/01 10:04:58;;;;;;;;;;;;;;;23.50;92.27;100233.88;10673608;27;19919;-66
2022/08/01 10:10:12;;;;;;;;;;;;;;;38.74;39.78;100187.16;10673484;27;19919;-71
2022/08/01 10:15:17;;;;;;;;;;;;;;;42.26;30.94;100188.56;10673159;27;19922;-64
2022/08/01 10:20:21;;;;;;;;;;;;;;;40.91;30.48;100180.97;10671742;27;20225;-66
2022/08/01 10:25:36;;;;;;;;;;;;;;;31.94;44.00;100203.09;10672675;27;20376;-67
2022/08/01 10:30:46;;;;;;;;;;;;;;;28.50;51.06;100206.19;10672900;27;20289;-66
2022/08/01 10:35:51;;;;;;;;;;;;;;;27.53;54.66;100218.06;10672004;27;19934;-67
2022/08/01 10:40:56;;;;;;;;;;;;;;;26.73;55.34;100217.44;10672097;27;19923;-67
2022/08/01 10:45:59;;;;;;;;;;;;;;;26.56;56.05;100225.03;10672276;27;20344;-66
2022/08/01 10:51:04;;;;;;;;;;;;;;;26.51;57.01;100209.41;10671738;27;19919;-68
2022/08/01 10:56:22;;;;;;;;;;;;;;;26.45;57.36;100217.03;10671370;27;20300;-66
2022/08/01 11:01:31;;;;;;;;;;;;;;;26.01;58.42;100220.41;10670970;27;19919;-65
2022/08/01 11:06:41;;;;;;;;;;;;;;;25.81;57.93;100208.63;10670627;27;20350;-68
2022/08/01 11:11:58;;;;;;;;;;;;;;;26.14;56.91;100207.91;10670864;27;19938;-69
2022/08/01 11:17:31;;;;;;;;;;;;;;;26.26;55.85;100206.97;10672364;27;19944;-67
2022/08/01 11:23:12;;;;;;;;;;;;;;;26.00;56.20;100205.41;10673210;27;19919;-65
2022/08/01 11:28:23;;;;;;;;;;;;;;;26.17;56.16;100212.97;10596414;27;20386;-67
2022/08/01 11:33:49;;;;;;;;;;;;;;;26.67;57.18;100220.59;10672923;27;19923;-68
2022/08/01 11:39:14;;;;;;;;;;;;;;;27.27;56.65;100214.84;10672654;27;19919;-66
2022/08/01 11:44:25;;;;;;;;;;;;;;;27.85;56.29;100209.13;10672707;27;19947;-68
2022/08/01 11:49:32;;;;;;;;;;;;;;;28.20;55.12;100203.47;10672432;27;19927;-66
2022/08/01 11:54:37;;;;;;;;;;;;;;;28.71;54.97;100193.69;10672315;27;19923;-67
2022/08/01 11:59:45;;;;;;;;;;;;;;;29.15;51.08;100201.31;10671852;27;20256;-66
2022/08/01 12:05:06;;;;;;;;;;;;;;;29.35;50.75;100205.75;10672258;27;19938;-68
2022/08/01 12:10:11;;;;;;;;;;;;;;;30.08;50.12;100199.84;10670499;27;19930;-68
2022/08/01 12:15:16;;;;;;;;;;;;;;;30.30;49.75;100188.84;10668178;27;20221;-66
2022/08/01 12:20:20;;;;;;;;;;;;;;;30.25;49.83;100190.28;10690353;27;20247;-67
2022/08/01 12:25:24;;;;;;;;;;;;;;;30.66;47.21;100195.22;10713784;27;19929;-65
2022/08/01 12:30:30;;;;;;;;;;;;;;;31.01;47.64;100195.34;10713825;27;19929;-68
2022/08/01 12:35:34;;;;;;;;;;;;;;;31.05;47.30;100188.69;10713876;27;20013;-67
2022/08/01 12:40:41;;;;;;;;;;;;;;;30.78;47.43;100190.50;10713269;27;19918;-68
2022/08/01 12:45:50;;;;;;;;;;;;;;;29.78;49.11;100192.00;10713380;27;19918;-68
2022/08/01 12:51:00;;;;;;;;;;;;;;;30.39;47.37;100198.69;10713332;27;19946;-64
2022/08/01 12:56:04;;;;;;;;;;;;;;;30.40;48.84;100186.13;10713415;27;19967;-67
2022/08/01 13:01:10;;;;;;;;;;;;;;;30.46;47.51;100183.72;10712849;27;19925;-66
2022/08/01 13:06:15;;;;;;;;;;;;;;;30.07;48.24;100191.94;10713590;27;20343;-65
2022/08/01 13:11:19;;;;;;;;;;;;;;;30.16;48.69;100180.38;10712476;27;20341;-66
2022/08/01 13:16:25;;;;;;;;;;;;;;;29.64;48.84;100179.00;10713492;27;19919;-70
2022/08/01 13:21:55;;;;;;;;;;;;;;;29.44;47.45;100185.34;10712081;27;19919;-69
2022/08/01 13:26:59;;;;;;;;;;;;;;;29.43;49.19;100187.16;10712711;27;20243;-71
2022/08/01 13:32:14;;;;;;;;;;;;;;;29.43;49.56;100186.28;10710841;27;19929;-68
2022/08/01 13:37:32;;;;;;;;;;;;;;;29.81;49.86;100186.34;10709861;27;20006;-66
2022/08/01 13:42:35;;;;;;;;;;;;;;;29.81;48.11;100188.16;10323497;27;10000540;-68
2022/08/01 13:47:39;;;;;;;;;;;;;;;29.76;48.70;100193.09;10665858;27;19918;-67
2022/08/01 13:53:03;;;;;;;;;;;;;;;29.26;49.53;100189.66;10665863;27;19971;-64
2022/08/01 13:58:06;;;;;;;;;;;;;;;28.78;50.51;100197.50;10673559;27;19933;-67
2022/08/01 14:03:10;;;;;;;;;;;;;;;29.22;50.40;100199.78;10673397;27;19919;-67
2022/08/01 14:08:13;;;;;;;;;;;;;;;29.32;51.15;100200.63;10673401;27;20415;-68
2022/08/01 14:13:18;;;;;;;;;;;;;;;29.39;52.02;100199.09;10672972;27;19919;-69
2022/08/01 14:18:26;;;;;;;;;;;;;;;29.13;51.76;100197.91;10672578;27;19923;-71
2022/08/01 14:23:31;;;;;;;;;;;;;;;29.19;50.52;100207.22;10672833;27;19930;-67
2022/08/01 14:28:34;;;;;;;;;;;;;;;29.18;50.66;100208.22;10672355;27;20244;-68
2022/08/01 14:33:38;;;;;;;;;;;;;;;28.83;52.07;100213.97;10671811;27;19945;-66
2022/08/01 14:38:41;;;;;;;;;;;;;;;28.64;53.69;100213.91;10672152;27;19922;-68
2022/08/01 14:43:48;;;;;;;;;;;;;;;28.59;52.09;100209.94;10672117;27;19946;-70
2022/08/01 14:48:52;;;;;;;;;;;;;;;28.28;51.73;100214.38;10684143;27;19955;-68
2022/08/01 14:53:55;;;;;;;;;;;;;;;27.55;53.06;100218.81;10674324;27;20013;-68
2022/08/01 14:58:59;;;;;;;;;;;;;;;27.84;53.05;100220.75;10671029;27;19925;-67
2022/08/01 15:04:04;;;;;;;;;;;;;;;27.42;55.10;100220.78;10671039;27;19967;-63
2022/08/01 15:09:11;;;;;;;;;;;;;;;27.36;54.50;100229.28;10670599;27;19929;-63
2022/08/01 15:19:36;;;;;;;;;;;;;;;27.16;55.48;100237.03;10670564;27;20059;-64
2022/08/01 15:24:44;;;;;;;;;;;;;;;26.95;55.58;100241.44;10670144;27;19923;-65
2022/08/01 15:29:47;;;;;;;;;;;;;;;26.54;56.56;100241.09;10673265;27;19922;-67
2022/08/01 15:34:51;;;;;;;;;;;;;;;26.20;57.79;100236.69;10683146;27;20354;-65
2022/08/01 15:39:54;;;;;;;;;;;;;;;26.01;57.57;100245.19;10697980;27;20367;-66
2022/08/01 15:44:58;;;;;;;;;;;;;;;25.95;57.40;100240.34;10669485;27;19960;-66
2022/08/01 15:50:04;;;;;;;;;;;;;;;26.11;57.74;100234.75;10672372;27;19923;-68
2022/08/01 15:55:07;;;;;;;;;;;;;;;25.89;58.98;100238.16;10668578;27;19927;-66
2022/08/01 16:00:11;;;;;;;;;;;;;;;25.68;60.11;100244.22;10668665;27;19938;-69
2022/08/01 16:05:15;;;;;;;;;;;;;;;25.48;61.04;100240.38;10668371;27;19919;-69
2022/08/01 16:10:22;;;;;;;;;;;;;;;25.38;61.27;100249.13;10668108;27;19930;-68
2022/08/01 16:15:25;;;;;;;;;;;;;;;25.22;60.65;100245.81;10668286;27;19922;-69
2022/08/01 16:20:40;;;;;;;;;;;;;;;25.13;62.17;100244.69;10667251;27;19918;-69
2022/08/01 16:25:47;;;;;;;;;;;;;;;25.08;62.73;100252.13;10668273;27;19923;-66
2022/08/01 16:30:50;;;;;;;;;;;;;;;25.02;62.29;100257.91;10667702;27;19953;-71
2022/08/01 16:36:15;;;;;;;;;;;;;;;24.91;62.31;100257.78;10667119;27;19923;-70
2022/08/01 16:41:20;;;;;;;;;;;;;;;24.82;61.92;100259.28;10685807;27;21486;-69
2022/08/01 16:46:24;;;;;;;;;;;;;;;24.74;61.76;100263.44;10710234;27;20343;-69
2022/08/01 16:51:28;;;;;;;;;;;;;;;24.66;62.08;100265.75;10710075;27;19938;-68
2022/08/01 16:56:34;;;;;;;;;;;;;;;24.58;62.42;100262.78;10710913;27;20288;-69
2022/08/01 17:01:39;;;;;;;;;;;;;;;24.54;62.27;100267.44;10709943;27;19930;-68
2022/08/01 17:07:03;;;;;;;;;;;;;;;24.49;62.89;100269.56;10709867;27;19937;-69
2022/08/01 17:12:07;;;;;;;;;;;;;;;24.44;62.82;100269.03;10710284;27;20018;-67
2022/08/01 17:17:10;;;;;;;;;;;;;;;24.41;62.56;100281.66;10709437;27;20262;-65
2022/08/01 17:22:15;;;;;;;;;;;;;;;24.32;62.57;100283.13;10709327;27;20009;-66
2022/08/01 17:27:18;;;;;;;;;;;;;;;24.22;62.81;100284.72;10709963;27;19937;-65
2022/08/01 17:32:21;;;;;;;;;;;;;;;24.18;62.96;100290.34;10718002;27;19937;-65
2022/08/01 17:37:25;;;;;;;;;;;;;;;24.12;63.52;100290.72;10717408;27;20466;-68
2022/08/01 17:42:29;;;;;;;;;;;;;;;24.08;64.74;100289.22;10688107;27;19923;-70
2022/08/01 17:47:32;;;;;;;;;;;;;;;24.01;65.77;100291.44;10674257;27;19923;-65
2022/08/01 17:52:53;;;;;;;;;;;;;;;23.97;65.93;100297.84;10674067;27;19979;-65
2022/08/01 17:57:56;;;;;;;;;;;;;;;23.87;67.21;100299.41;10673728;27;19927;-67
2022/08/01 18:02:59;;;;;;;;;;;;;;;23.78;68.60;100306.19;10673474;27;19929;-67
2022/08/01 18:08:06;;;;;;;;;;;;;;;23.72;68.75;100309.25;10673548;27;19938;-69
2022/08/01 18:13:09;;;;;;;;;;;;;;;23.68;68.99;100313.03;10673141;27;19927;-67
2022/08/01 18:18:12;;;;;;;;;;;;;;;23.61;69.85;100310.84;10672597;27;20021;-68
2022/08/01 18:23:17;;;;;;;;;;;;;;;23.52;71.80;100311.47;10672796;27;19927;-64
2022/08/01 18:28:20;;;;;;;;;;;;;;;23.45;73.23;100315.47;10672425;27;19933;-69
2022/08/01 18:33:36;;;;;;;;;;;;;;;23.38;74.75;100322.09;10672704;27;19929;-68
2022/08/01 18:38:40;;;;;;;;;;;;;;;23.31;76.12;100326.94;10672044;27;19935;-65
2022/08/01 18:43:47;;;;;;;;;;;;;;;23.25;77.40;100327.28;10711985;27;19937;-67
2022/08/01 18:48:50;;;;;;;;;;;;;;;23.21;77.99;100333.69;10715416;27;19922;-66
2022/08/01 18:53:56;;;;;;;;;;;;;;;23.18;78.26;100343.63;10714785;27;19922;-66
2022/08/01 18:58:59;;;;;;;;;;;;;;;23.12;79.46;100344.88;10714582;27;19923;-65
2022/08/01 19:04:02;;;;;;;;;;;;;;;23.07;80.72;100352.25;10714579;27;19923;-66
2022/08/01 19:09:07;;;;;;;;;;;;;;;23.02;80.96;100354.31;10714158;27;19923;-66
2022/08/01 19:14:10;;;;;;;;;;;;;;;22.96;82.02;100353.84;10715614;27;19927;-65
2022/08/01 19:19:16;;;;;;;;;;;;;;;22.92;82.79;100355.00;10713800;27;20617;-69
2022/08/01 19:24:32;;;;;;;;;;;;;;;22.88;83.65;100357.81;10713509;27;20414;-66
2022/08/01 19:29:36;;;;;;;;;;;;;;;22.86;84.13;100366.78;10713377;27;19922;-66
2022/08/01 19:34:44;;;;;;;;;;;;;;;22.83;84.98;100364.34;10713079;27;20018;-65
2022/08/01 19:39:48;;;;;;;;;;;;;;;22.81;85.33;100375.00;10706912;27;19927;-69
2022/08/01 19:44:51;;;;;;;;;;;;;;;22.79;85.98;100374.25;10669689;27;19933;-69
2022/08/01 19:49:54;;;;;;;;;;;;;;;22.77;86.73;100372.63;10669218;27;19940;-68
2022/08/01 19:55:01;;;;;;;;;;;;;;;22.73;88.34;100366.66;10667841;27;20301;-62
2022/08/01 20:00:04;;;;;;;;;;;;;;;22.68;88.53;100373.19;10669120;27;19962;-66
2022/08/01 20:05:08;;;;;;;;;;;;;;;22.61;89.18;100374.47;10668572;27;20355;-64
2022/08/01 20:10:13;;;;;;;;;;;;;;;22.59;89.55;100385.16;10668479;27;19941;-63
2022/08/01 20:15:16;;;;;;;;;;;;;;;22.56;90.25;100377.41;10668827;27;19923;-65
2022/08/01 20:20:19;;;;;;;;;;;;;;;22.55;90.89;100382.78;10667956;27;19934;-68
2022/08/01 20:25:27;;;;;;;;;;;;;;;22.60;91.83;100378.94;10650518;27;20300;-69
2022/08/01 20:30:42;;;;;;;;;;;;;;;22.52;92.28;100377.66;10667656;27;19927;-69
2022/08/01 20:35:46;;;;;;;;;;;;;;;22.50;93.16;100382.19;10667294;27;19923;-69
2022/08/01 20:40:57;;;;;;;;;;;;;;;22.46;93.48;100386.78;10682829;27;19934;-67
2022/08/01 20:46:00;;;;;;;;;;;;;;;22.44;93.73;100393.97;10710569;27;19951;-67
2022/08/01 20:51:15;;;;;;;;;;;;;;;22.39;94.73;100385.44;10710223;27;19948;-66
2022/08/01 20:56:25;;;;;;;;;;;;;;;22.38;95.50;100381.09;10710666;27;20013;-69
2022/08/01 21:01:29;;;;;;;;;;;;;;;22.35;95.37;100388.34;10710011;27;19923;-64
2022/08/01 21:06:35;;;;;;;;;;;;;;;22.32;95.96;100386.75;10718207;27;19929;-65
2022/08/01 21:11:57;;;;;;;;;;;;;;;22.28;96.90;100393.13;10719608;27;19922;-65
2022/08/01 21:17:05;;;;;;;;;;;;;;;22.27;96.93;100404.66;10718633;27;19926;-66
2022/08/01 21:22:10;;;;;;;;;;;;;;;22.30;98.10;100395.69;10718720;27;19922;-66
2022/08/01 21:27:16;;;;;;;;;;;;;;;22.34;98.64;100398.09;10718397;27;19933;-66
2022/08/01 21:32:21;;;;;;;;;;;;;;;22.24;98.86;100394.28;10718159;27;19923;-69
2022/08/01 21:37:24;;;;;;;;;;;;;;;22.17;99.65;100400.00;10718264;27;19922;-70
2022/08/01 21:42:29;;;;;;;;;;;;;;;22.11;100.00;100409.13;10688471;27;19958;-72
2022/08/01 21:47:32;;;;;;;;;;;;;;;22.09;100.00;100408.34;10676064;27;19931;-73
2022/08/01 21:52:41;;;;;;;;;;;;;;;22.10;100.00;100396.84;10712605;27;20328;-68
2022/08/01 21:57:55;;;;;;;;;;;;;;;22.07;100.00;100404.94;10720982;27;19922;-68
2022/08/01 22:03:00;;;;;;;;;;;;;;;22.03;100.00;100406.06;10720372;27;19923;-66
2022/08/01 22:08:08;;;;;;;;;;;;;;;22.01;100.00;100402.66;10719900;27;19947;-65
2022/08/01 22:13:12;;;;;;;;;;;;;;;21.97;100.00;100408.22;10719916;27;20334;-71
2022/08/01 22:18:15;;;;;;;;;;;;;;;21.94;100.00;100403.06;10718559;27;19933;-69
2022/08/01 22:23:19;;;;;;;;;;;;;;;21.92;100.00;100405.78;10719353;27;19930;-69
2022/08/01 22:28:24;;;;;;;;;;;;;;;21.90;100.00;100414.78;10719103;27;19933;-66
2022/08/01 22:33:27;;;;;;;;;;;;;;;21.90;100.00;100418.25;10719313;27;20359;-66
2022/08/01 22:38:30;;;;;;;;;;;;;;;21.92;100.00;100418.19;10718837;27;19926;-66
2022/08/01 22:43:39;;;;;;;;;;;;;;;21.82;100.00;100417.81;10718390;27;19923;-66
2022/08/01 22:48:45;;;;;;;;;;;;;;;21.81;100.00;100429.34;10718561;27;19923;-68
2022/08/01 22:53:53;;;;;;;;;;;;;;;21.79;100.00;100429.41;10718051;27;19923;-68
2022/08/01 22:58:58;;;;;;;;;;;;;;;21.76;100.00;100426.06;10717926;27;19922;-69
2022/08/01 23:04:02;;;;;;;;;;;;;;;21.74;100.00;100422.66;10717750;27;19926;-67
2022/08/01 23:09:06;;;;;;;;;;;;;;;21.66;100.00;100432.75;10717849;27;19923;-64
2022/08/01 23:14:11;;;;;;;;;;;;;;;21.70;100.00;100432.53;10717494;27;20286;-65
2022/08/01 23:19:15;;;;;;;;;;;;;;;21.62;100.00;100424.16;10717070;27;20006;-69
2022/08/01 23:24:19;;;;;;;;;;;;;;;21.63;100.00;100436.44;10716877;27;19923;-69
2022/08/01 23:29:26;;;;;;;;;;;;;;;21.60;100.00;100436.63;10716552;27;20348;-67
2022/08/01 23:34:29;;;;;;;;;;;;;;;21.57;100.00;100430.66;10716484;27;19923;-68
2022/08/01 23:39:32;;;;;;;;;;;;;;;21.54;100.00;100433.44;10716340;27;20220;-70
2022/08/01 23:44:37;;;;;;;;;;;;;;;21.50;100.00;100435.38;10716299;27;19923;-67
2022/08/01 23:49:40;;;;;;;;;;;;;;;21.46;100.00;100438.28;10715839;27;19923;-67
2022/08/01 23:54:55;;;;;;;;;;;;;;;21.44;100.00;100434.88;10715802;27;19923;-70
